»·PEaware :: N930TS KDEN-KTEX

N930TS :: KDEN-KTEX

FLIGHT INFORMATION

Flight Status: Arrived
Operator: Privately registered:
United States
More flights under this callsign
Pilot: Skye D. (10623)
Aircraft: SOCATA TBM-900
(TBM9)
More flights by this aircraft type
Origin: KDEN Denver Intl
United States
Destination: KTEX Telluride Regl
United States
More flights between these airports :: More routes between these airports
Route: ROCKI5 MTJ ETL
File this flight plan on PilotEdge
Remarks: RMK / SIMBRIEF
Altitude:
(Current/Filed)
28,000ft
Speed:
(Current/Filed)
317kts
Departed: 13-Oct-23 12:55 PM
Arrived: 13-Oct-23 01:50 PM
Distance/Time
Traveled:
189nm/0:55
Distance/Time
To Go:
Arrived

Flight Plot

Page will automatically refresh every two minutes.

Flight plan parsing failed; only flown route is shown


Map Options




Map Legend


Flown Route
Filed Route
Departure Airport
Arrival Airport
Navaid (VOR, NDB)
Fix

Horizontal Profiles

Position Reports

Time Latitude Longitude Heading Altitude Ground
Speed
13-Oct-23 12:20 39.839339 -104.665261 231 5411ft 0kts
13-Oct-23 12:21 39.839339 -104.665261 231 5411ft 0kts
13-Oct-23 12:22 39.839339 -104.665261 231 5411ft 0kts
13-Oct-23 12:23 39.839339 -104.665261 231 5411ft 0kts
13-Oct-23 12:24 39.839339 -104.665261 231 5411ft 0kts
13-Oct-23 12:25 39.839339 -104.665261 231 5411ft 0kts
13-Oct-23 12:26 39.839339 -104.665261 231 5411ft 0kts
13-Oct-23 12:27 39.839339 -104.665261 231 5411ft 0kts
13-Oct-23 12:28 39.839339 -104.665261 231 5411ft 0kts
13-Oct-23 12:29 39.839339 -104.665261 231 5411ft 0kts
13-Oct-23 12:30 39.839339 -104.665261 231 5411ft 0kts
13-Oct-23 12:31 39.839339 -104.665261 231 5411ft 0kts
13-Oct-23 12:32 39.839339 -104.665261 231 5411ft 0kts
13-Oct-23 12:35 39.839339 -104.665261 231 5411ft 0kts
13-Oct-23 12:36 39.839339 -104.665261 231 5411ft 0kts
13-Oct-23 12:37 39.839339 -104.665261 231 5411ft 0kts
13-Oct-23 12:38 39.839339 -104.665261 231 5411ft 0kts
13-Oct-23 12:39 39.839339 -104.665261 231 5411ft 0kts
13-Oct-23 12:40 39.839339 -104.665261 231 5411ft 0kts
13-Oct-23 12:41 39.839339 -104.665261 231 5411ft 0kts
13-Oct-23 12:42 39.839339 -104.665261 231 5411ft 0kts
13-Oct-23 12:43 39.839339 -104.665261 231 5411ft 0kts
13-Oct-23 12:44 39.839339 -104.665261 231 5411ft 0kts
13-Oct-23 12:45 39.839339 -104.665261 231 5411ft 0kts
13-Oct-23 12:46 39.839339 -104.665261 231 5411ft 0kts
13-Oct-23 12:47 39.838936 -104.664809 87 5413ft 3kts
13-Oct-23 12:48 39.840192 -104.663201 77 5414ft 13kts
13-Oct-23 12:49 39.837596 -104.662533 183 5419ft 11kts
13-Oct-23 12:50 39.834388 -104.662617 182 5425ft 9kts
13-Oct-23 12:51 39.830987 -104.662695 180 5431ft 16kts
13-Oct-23 12:53 39.828426 -104.661711 88 5437ft 6kts
13-Oct-23 12:54 39.828800 -104.660548 359 5438ft 11kts
13-Oct-23 12:55 39.853871 -104.662569 325 6404ft 132kts
13-Oct-23 12:56 39.879149 -104.708043 304 8144ft 162kts
13-Oct-23 12:57 39.880124 -104.769921 255 10339ft 186kts
13-Oct-23 12:58 39.859329 -104.829127 247 12718ft 183kts
13-Oct-23 12:59 39.836330 -104.889342 248 14985ft 187kts
13-Oct-23 13:00 39.812786 -104.950541 248 17151ft 191kts
13-Oct-23 13:01 39.788810 -105.012982 247 19224ft 195kts
13-Oct-23 13:02 39.764183 -105.076867 247 21160ft 199kts
13-Oct-23 13:03 39.738958 -105.142163 247 23144ft 205kts
13-Oct-23 13:04 39.713152 -105.208830 248 24959ft 207kts
13-Oct-23 13:05 39.687155 -105.275816 250 26741ft 207kts
13-Oct-23 13:06 39.660864 -105.343591 250 28157ft 225kts
13-Oct-23 13:07 39.629224 -105.424825 249 28140ft 272kts
13-Oct-23 13:08 39.593766 -105.515467 249 28126ft 289kts
13-Oct-23 13:09 39.556919 -105.609412 249 28103ft 293kts
13-Oct-23 13:10 39.528711 -105.707484 255 28083ft 290kts
13-Oct-23 13:11 39.501514 -105.805838 255 28064ft 290kts
13-Oct-23 13:12 39.474227 -105.903817 255 28067ft 290kts
13-Oct-23 13:13 39.446824 -106.001954 255 28075ft 289kts
13-Oct-23 13:14 39.419499 -106.099245 255 28128ft 288kts
13-Oct-23 13:15 39.392069 -106.196687 255 28171ft 288kts
13-Oct-23 13:16 39.364568 -106.293942 255 28206ft 287kts
13-Oct-23 13:17 39.337182 -106.390496 254 28218ft 286kts
13-Oct-23 13:18 39.309736 -106.486879 255 28201ft 286kts
13-Oct-23 13:19 39.282220 -106.583102 255 28177ft 286kts
13-Oct-23 13:19 39.259247 -106.663279 255 28198ft 285kts
13-Oct-23 13:20 39.221997 -106.754668 238 28241ft 296kts
13-Oct-23 13:22 39.162230 -106.851778 239 28239ft 295kts
13-Oct-23 13:23 39.111227 -106.934496 239 28224ft 296kts
13-Oct-23 13:24 39.060360 -107.016872 239 28189ft 296kts
13-Oct-23 13:24 39.017482 -107.085995 238 28158ft 296kts
13-Oct-23 13:25 38.965929 -107.168907 238 28120ft 296kts
13-Oct-23 13:26 38.914542 -107.251407 238 28120ft 296kts
13-Oct-23 13:27 38.862866 -107.334171 237 28109ft 298kts
13-Oct-23 13:29 38.802138 -107.431188 237 27383ft 301kts
13-Oct-23 13:29 38.758029 -107.501477 237 26542ft 304kts
13-Oct-23 13:30 38.704337 -107.586769 237 25305ft 311kts
13-Oct-23 13:31 38.649425 -107.673815 236 23971ft 317kts
13-Oct-23 13:32 38.593717 -107.761916 235 22481ft 319kts
13-Oct-23 13:33 38.537830 -107.849979 235 21005ft 316kts
13-Oct-23 13:34 38.473391 -107.924925 215 19577ft 319kts
13-Oct-23 13:35 38.398214 -107.983781 214 18139ft 314kts
13-Oct-23 13:36 38.324221 -108.040916 214 16561ft 309kts
13-Oct-23 13:37 38.252485 -108.096192 213 15057ft 287kts
13-Oct-23 13:38 38.186235 -108.148907 214 13808ft 276kts
13-Oct-23 13:39 38.121784 -108.197060 209 12680ft 265kts
13-Oct-23 13:40 38.057263 -108.240016 208 11866ft 252kts
13-Oct-23 13:41 37.999240 -108.230557 117 11872ft 246kts
13-Oct-23 13:42 37.994475 -108.146522 102 11917ft 243kts
13-Oct-23 13:43 37.981878 -108.071550 101 11450ft 187kts
13-Oct-23 13:44 37.971250 -108.007499 119 11437ft 186kts
13-Oct-23 13:45 37.945284 -107.958823 134 11305ft 155kts
13-Oct-23 13:46 37.925781 -107.910753 101 11072ft 153kts
13-Oct-23 13:47 37.935661 -107.868921 2 10457ft 112kts
13-Oct-23 13:48 37.949693 -107.888769 281 9272ft 86kts
13-Oct-23 13:49 37.953663 -107.907595 238 9044ft 3kts
13-Oct-23 13:50 37.952771 -107.903828 107 9057ft 12kts
13-Oct-23 13:51 37.953132 -107.901228 359 9064ft 7kts
13-Oct-23 13:52 37.954150 -107.902767 102 9065ft 0kts
13-Oct-23 13:53 37.954150 -107.902767 102 9065ft 0kts

Navigation Log

Ident Type
Flight plan parsing failed, navigation log unavailable